This is the latest recevied weather packets stored in our database for station/object SP9MLI-1. If no packets are shown the sender has not sent any weather packets the latest 10 day(s).
| Time | Temp. | Humidity | Pressure | Rain* | Wind** | Luminosity | Snow |
|---|---|---|---|---|---|---|---|
| 1777836196 | 15.56° C | 73% | 1012.3 hPa | 0 mm | - | - | - |
| 1777835296 | 16.11° C | 72% | 1012.3 hPa | 0 mm | - | - | - |
| 1777834395 | 17.22° C | 70% | 1012.3 hPa | 0 mm | - | - | - |
| 1777833499 | 17.78° C | 67% | 1012.6 hPa | 0 mm | - | - | - |
| 1777832601 | 22.78° C | 53% | 1013 hPa | 0 mm | - | - | - |
| 1777831697 | 22.78° C | 53% | 1013 hPa | 0 mm | - | - | - |
| 1777830795 | 22.78° C | 53% | 1013 hPa | 0 mm | - | - | - |
| 1777829895 | 22.78° C | 53% | 1013 hPa | 0 mm | - | - | - |
| 1777828995 | 22.78° C | 51% | 1013 hPa | 0 mm | - | - | - |
| 1777828095 | 23.33° C | 50% | 1013 hPa | 0 mm | - | - | - |
| 1777827194 | 23.89° C | 48% | 1013 hPa | 0 mm | - | - | - |
| 1777826295 | 24.44° C | 46% | 1013.3 hPa | 0 mm | - | - | - |
| 1777825395 | 25° C | 45% | 1013.3 hPa | 0 mm | - | - | - |
| 1777824495 | 25° C | 43% | 1013.7 hPa | 0 mm | - | - | - |
| 1777823595 | 25.56° C | 43% | 1013.7 hPa | 0 mm | - | - | - |
| 1777822695 | 27.22° C | 42% | 1013.7 hPa | 0 mm | - | - | - |
| 1777821798 | 28.89° C | 39% | 1013.3 hPa | 0 mm | - | - | - |
| 1777820894 | 30° C | 30% | 1013.7 hPa | 0 mm | - | - | - |
| 1777819994 | 30° C | 31% | 1013.7 hPa | 0 mm | - | - | - |
| 1777819095 | 29.44° C | 33% | 1013.7 hPa | 0 mm | - | - | - |
| 1777818194 | 28.89° C | 32% | 1014 hPa | 0 mm | - | - | - |
| 1777817294 | 28.89° C | 31% | 1014 hPa | 0 mm | - | - | - |
| 1777816461 | 29.44° C | 32% | 1014.7 hPa | 0 mm | - | - | - |
| 1777816394 | 29.44° C | 32% | 1014.7 hPa | 0 mm | - | - | - |
| 1777815494 | 29.44° C | 33% | 1014.7 hPa | 0 mm | - | - | - |
* Rain latest hour (hover to see other rain measurements)
** Current wind speed in m/s (hover to see current wind gust speed)